Metler Valley, California
Current Conditions -  °F | °C
As of 7:48 AM on Thursday 29 Jan 2015 (Local Time) from KSDB Reporting Station
Overcast Overcast  
Wind Chill: 50°   Ceiling: 10000
Heat Index: 50°   Visibility: 10mi
Dew Point: 37°   Wind: 22mph
Humidity: 61%   Direction: 70°ENE
Pressure: 30.18"   Gusts: 26mph
Location:  34.8604°N, 118.583°W
Report Text: KSDB 291548Z AUTO 07019G23KT 10SM OVC100 10/03 A3018 RMK AO2 SLP194 T01000028
Loading
Personal Weather Stations






























Interactive Weather Map New forecast layout! Learn more

10-Day Weather Forecast

Advertisements
Track Severe Weather on mobile